Time;durP1;ratioP1;P1;durP2;ratioP2;P2;SDS_P1;SDS_P2;PMS_P1;PMS_P2;Temp;Humidity;BMP_temperature;BMP_pressure;BME280_temperature;BME280_humidity;BME280_pressure;Samples;Min_cycle;Max_cycle;Signal;HPM_P1;HPM_P2
2021/03/02 02:33:55;;;;;;;23.30;18.87;;;4.30;98.00;;;;;;4972439;28;20460;-93
2021/03/02 02:44:46;;;;;;;22.20;16.97;;;4.10;98.20;;;;;;4978019;29;20451;-93
2021/03/02 02:53:46;;;;;;;29.33;19.93;;;4.00;99.20;;;;;;5095440;23;20535;-96
2021/03/02 02:56:15;;;;;;;25.75;19.65;;;3.90;99.20;;;;;;5022256;28;20450;-94
2021/03/02 02:59:03;;;;;;;25.05;18.45;;;3.90;99.20;;;;;;5096872;23;20279;-93
2021/03/02 03:04:21;;;;;;;25.52;17.50;;;3.80;99.90;;;;;;5017175;28;20695;-93
2021/03/02 03:06:56;;;;;;;24.57;17.80;;;3.80;99.90;;;;;;5013853;28;20210;-94
2021/03/02 03:09:44;;;;;;;29.97;18.07;;;3.80;99.90;;;;;;5016362;28;20504;-94
2021/03/02 03:12:14;;;;;;;26.33;19.60;;;3.80;99.90;;;;;;5012173;28;20557;-93
2021/03/02 03:14:48;;;;;;;31.20;18.20;;;3.70;99.90;;;;;;5015790;28;20450;-95
2021/03/02 03:17:17;;;;;;;29.33;19.23;;;3.70;99.90;;;;;;5012465;28;20456;-93
2021/03/02 03:19:45;;;;;;;27.47;17.50;;;3.60;99.90;;;;;;5013408;28;20430;-94
2021/03/02 03:22:13;;;;;;;29.08;18.73;;;3.60;99.90;;;;;;5021216;28;20481;-95
2021/03/02 05:58:25;;;;;;;28.80;15.75;;;3.00;99.90;;;;;;1327039;23;20560;-84
2021/03/02 06:00:54;;;;;;;25.38;17.15;;;3.10;99.90;;;;;;5020229;28;20235;-84
2021/03/02 06:03:30;;;;;;;30.02;19.40;;;3.00;99.90;;;;;;5020606;28;20223;-85
2021/03/02 06:06:04;;;;;;;33.90;20.05;;;3.00;99.90;;;;;;5038704;28;20207;-92
2021/03/02 06:08:44;;;;;;;24.42;17.17;;;3.00;99.90;;;;;;5027221;28;20228;-91
2021/03/02 06:11:34;;;;;;;26.88;17.30;;;3.00;99.90;;;;;;5029079;28;20223;-92
2021/03/02 06:14:30;;;;;;;27.20;17.63;;;2.90;99.90;;;;;;5018841;28;20231;-91
2021/03/02 06:17:00;;;;;;;37.92;19.00;;;2.90;99.90;;;;;;5020985;28;20222;-92
2021/03/02 06:19:44;;;;;;;31.70;18.13;;;2.90;99.90;;;;;;5003186;28;20204;-92
2021/03/02 06:22:35;;;;;;;29.52;17.13;;;2.90;99.90;;;;;;5004827;28;20228;-91
2021/03/02 06:25:04;;;;;;;23.27;18.13;;;2.90;99.90;;;;;;4999259;28;20204;-92
2021/03/02 06:27:53;;;;;;;27.88;18.05;;;2.90;99.90;;;;;;5013083;28;20200;-92
2021/03/02 06:31:05;;;;;;;31.42;19.30;;;2.90;99.90;;;;;;5007404;28;20204;-91
2021/03/02 06:33:54;;;;;;;29.88;18.20;;;3.00;99.90;;;;;;5014057;28;20256;-92
2021/03/02 06:43:04;;;;;;;29.75;16.83;;;3.00;99.90;;;;;;5064672;23;20271;-91
2021/03/02 06:49:22;;;;;;;26.63;18.02;;;3.10;99.90;;;;;;5036883;28;20183;-93
2021/03/02 06:52:28;;;;;;;38.13;19.42;;;3.10;99.90;;;;;;5027905;28;20560;-92
2021/03/02 06:58:26;;;;;;;33.28;20.15;;;3.30;99.90;;;;;;4940123;29;20210;-90
2021/03/02 07:01:33;;;;;;;28.40;18.92;;;3.30;99.90;;;;;;4989254;28;20729;-93
2021/03/02 07:04:20;;;;;;;33.65;17.85;;;3.40;99.90;;;;;;5022773;28;20330;-92
2021/03/02 07:10:39;;;;;;;28.95;17.85;;;3.50;99.90;;;;;;5007539;28;20219;-92
2021/03/02 07:13:32;;;;;;;22.17;16.13;;;3.50;99.90;;;;;;4970149;28;20247;-92
2021/03/02 07:22:42;;;;;;;36.28;18.30;;;3.70;99.90;;;;;;5030615;28;20224;-93
2021/03/02 07:38:50;;;;;;;22.83;15.27;;;4.10;99.90;;;;;;5007714;28;20197;-92
2021/03/02 07:41:43;;;;;;;33.27;16.00;;;4.20;99.90;;;;;;5017184;28;20278;-93
2021/03/02 07:45:00;;;;;;;23.77;17.43;;;4.30;99.90;;;;;;5018568;28;20466;-93
2021/03/02 07:48:18;;;;;;;29.00;20.00;;;4.40;99.90;;;;;;5010583;28;20434;-93
2021/03/02 07:50:53;;;;;;;26.77;19.17;;;4.50;99.90;;;;;;4994251;28;20486;-91
2021/03/02 07:53:49;;;;;;;21.63;16.53;;;4.60;99.90;;;;;;5023332;28;20226;-91
2021/03/02 07:56:26;;;;;;;21.83;17.23;;;4.80;99.70;;;;;;5028816;28;20516;-93
2021/03/02 08:06:01;;;;;;;23.10;16.53;;;5.10;99.30;;;;;;4997236;28;20460;-92
2021/03/02 08:09:19;;;;;;;27.70;17.37;;;5.20;99.10;;;;;;4980007;28;20509;-94
2021/03/02 08:11:48;;;;;;;23.40;16.50;;;5.40;98.60;;;;;;5010913;28;20447;-92
2021/03/02 08:18:43;;;;;;;21.63;16.50;;;6.00;98.00;;;;;;4951898;29;20471;-93
2021/03/02 08:21:14;;;;;;;25.70;16.10;;;6.30;96.90;;;;;;4952835;29;20485;-92
2021/03/02 08:23:49;;;;;;;23.00;16.93;;;6.40;96.50;;;;;;4954430;28;20497;-92
2021/03/02 08:26:28;;;;;;;25.90;16.60;;;7.20;96.00;;;;;;5011000;28;20540;-92
2021/03/02 08:39:16;;;;;;;22.70;16.77;;;11.70;81.20;;;;;;4994687;28;20534;-92
2021/03/02 08:41:45;;;;;;;22.10;16.97;;;12.10;78.00;;;;;;5001869;28;20498;-92
2021/03/02 08:44:23;;;;;;;20.10;17.40;;;11.70;77.70;;;;;;5010853;28;20500;-92
2021/03/02 08:46:55;;;;;;;22.13;17.70;;;11.60;78.40;;;;;;5001190;28;20459;-92
2021/03/02 08:49:27;;;;;;;19.30;17.13;;;11.60;78.00;;;;;;5003545;28;20527;-92
2021/03/02 08:52:01;;;;;;;23.60;17.73;;;11.60;78.20;;;;;;5009046;28;20474;-92
2021/03/02 08:54:31;;;;;;;24.53;18.37;;;11.70;77.80;;;;;;5003414;28;20453;-92
2021/03/02 08:57:11;;;;;;;25.90;18.80;;;11.60;77.30;;;;;;5000991;28;20451;-92
2021/03/02 08:59:39;;;;;;;24.73;20.27;;;11.40;77.90;;;;;;5001850;28;20447;-92
2021/03/02 09:02:08;;;;;;;25.20;20.00;;;11.30;78.80;;;;;;5002768;28;20486;-92
2021/03/02 09:04:38;;;;;;;23.50;18.63;;;11.60;78.70;;;;;;5030806;28;20457;-92
2021/03/02 09:07:25;;;;;;;25.53;18.60;;;12.30;77.40;;;;;;5033666;28;20430;-94
2021/03/02 09:09:54;;;;;;;22.73;18.20;;;12.90;74.20;;;;;;5023933;28;20566;-91
2021/03/02 09:12:30;;;;;;;23.20;20.13;;;13.00;72.80;;;;;;5035199;28;20458;-93
2021/03/02 09:14:59;;;;;;;29.73;20.23;;;12.90;73.60;;;;;;5013048;28;20544;-90
2021/03/02 09:17:29;;;;;;;22.10;18.17;;;13.50;72.90;;;;;;5007274;28;20447;-92
2021/03/02 09:20:08;;;;;;;24.40;18.73;;;13.90;70.10;;;;;;5017975;28;20451;-94
2021/03/02 09:22:37;;;;;;;23.17;17.63;;;14.20;69.50;;;;;;5015917;28;20484;-91
2021/03/02 09:25:08;;;;;;;22.47;20.33;;;14.50;68.40;;;;;;5002529;28;20452;-92
2021/03/02 09:27:51;;;;;;;23.00;19.77;;;14.90;66.70;;;;;;5008899;28;20457;-91
2021/03/02 09:30:23;;;;;;;25.60;19.80;;;15.80;64.70;;;;;;5005058;28;20538;-92
2021/03/02 09:32:55;;;;;;;19.80;17.90;;;16.30;63.10;;;;;;5016689;28;20558;-92
2021/03/02 09:35:23;;;;;;;19.17;17.00;;;16.60;60.30;;;;;;5004899;28;20541;-92
2021/03/02 09:38:01;;;;;;;19.27;17.27;;;16.10;60.60;;;;;;5010054;28;20547;-93
2021/03/02 09:40:43;;;;;;;24.83;17.33;;;16.20;60.60;;;;;;5006031;28;20859;-93
2021/03/02 09:43:18;;;;;;;20.97;16.93;;;16.40;60.10;;;;;;5014340;28;20494;-93
2021/03/02 09:46:09;;;;;;;20.83;16.43;;;16.60;59.90;;;;;;5014218;28;20503;-94
2021/03/02 09:51:34;;;;;;;20.37;18.40;;;17.00;58.20;;;;;;5029499;23;20515;-88
2021/03/02 09:54:14;;;;;;;24.20;18.57;;;17.10;57.80;;;;;;5012861;28;20450;-88
2021/03/02 09:56:45;;;;;;;19.83;17.47;;;17.50;57.40;;;;;;5021316;28;20518;-88
2021/03/02 09:59:20;;;;;;;19.80;17.70;;;17.80;57.20;;;;;;5020248;28;20487;-89
2021/03/02 10:01:46;;;;;;;21.40;17.00;;;18.20;56.00;;;;;;5004858;28;20494;-88
2021/03/02 10:04:12;;;;;;;19.20;17.33;;;18.60;55.00;;;;;;5004069;28;20447;-88
2021/03/02 10:06:39;;;;;;;21.07;18.87;;;18.90;54.30;;;;;;5008837;28;20451;-88
2021/03/02 10:17:14;;;;;;;19.47;17.57;;;20.60;51.20;;;;;;4991055;28;20460;-91
2021/03/02 10:19:40;;;;;;;20.07;17.70;;;21.80;49.20;;;;;;4987624;28;20451;-90
2021/03/02 10:22:17;;;;;;;18.57;16.87;;;22.50;47.20;;;;;;4982539;28;20501;-91
2021/03/02 10:24:44;;;;;;;18.80;16.90;;;22.60;47.30;;;;;;4982315;28;20453;-90
2021/03/02 10:27:13;;;;;;;24.73;18.23;;;22.60;46.30;;;;;;4988722;28;21285;-90
2021/03/02 10:29:46;;;;;;;19.27;17.40;;;23.00;46.30;;;;;;4984283;28;20516;-91
2021/03/02 10:32:17;;;;;;;19.83;17.73;;;23.70;45.10;;;;;;4985893;28;20440;-90
2021/03/02 10:34:48;;;;;;;20.30;18.20;;;24.00;44.90;;;;;;4984592;28;20451;-90
2021/03/02 10:37:19;;;;;;;19.93;18.10;;;25.10;43.40;;;;;;4979566;28;20442;-92
2021/03/02 10:39:45;;;;;;;21.77;19.83;;;25.60;41.80;;;;;;4978788;28;20458;-93
2021/03/02 10:42:12;;;;;;;25.50;20.10;;;25.40;40.80;;;;;;4972906;29;20498;-92
2021/03/02 10:44:38;;;;;;;21.43;19.20;;;25.10;40.60;;;;;;4980521;28;20633;-89
2021/03/02 10:47:06;;;;;;;20.80;18.80;;;25.00;41.50;;;;;;4982509;28;20509;-89
2021/03/02 10:49:33;;;;;;;20.43;18.30;;;24.90;42.00;;;;;;4979241;28;20558;-90
2021/03/02 10:51:59;;;;;;;19.30;17.60;;;25.60;40.20;;;;;;4971427;28;20514;-92
2021/03/02 10:54:25;;;;;;;19.57;17.73;;;25.60;39.50;;;;;;4963980;29;20439;-91
2021/03/02 10:56:52;;;;;;;18.30;16.73;;;24.90;40.30;;;;;;4964366;29;20485;-92
2021/03/02 10:59:18;;;;;;;19.20;17.20;;;25.20;40.30;;;;;;4967620;29;20664;-90
2021/03/02 11:01:44;;;;;;;17.70;15.83;;;25.40;39.80;;;;;;4976610;29;20553;-89
2021/03/02 11:04:11;;;;;;;19.20;17.43;;;25.50;39.90;;;;;;4978379;28;20452;-91
2021/03/02 11:06:38;;;;;;;18.20;16.40;;;26.60;39.00;;;;;;4979021;29;20954;-91
2021/03/02 11:09:14;;;;;;;18.70;16.80;;;27.10;37.60;;;;;;4995969;28;20489;-93
2021/03/02 11:11:58;;;;;;;17.97;16.37;;;27.00;37.90;;;;;;4955094;28;20585;-94
2021/03/02 11:14:25;;;;;;;17.87;16.23;;;27.50;36.30;;;;;;4975568;29;20805;-94
2021/03/02 11:19:36;;;;;;;18.50;16.80;;;27.30;35.70;;;;;;4978809;28;20456;-93
2021/03/02 11:22:12;;;;;;;19.37;16.90;;;28.90;35.20;;;;;;4979597;28;20504;-92
2021/03/02 11:24:38;;;;;;;20.40;18.60;;;28.40;34.00;;;;;;4971801;28;20531;-94
2021/03/02 11:27:12;;;;;;;19.97;17.90;;;27.80;35.00;;;;;;4976721;29;20470;-93
2021/03/02 11:29:48;;;;;;;20.27;18.37;;;27.80;34.70;;;;;;4975056;28;20830;-94
2021/03/02 11:32:17;;;;;;;20.77;17.63;;;27.80;35.20;;;;;;4979002;28;20463;-93
2021/03/02 11:35:11;;;;;;;19.00;17.27;;;28.80;34.60;;;;;;4979621;28;20442;-93
2021/03/02 11:40:32;;;;;;;22.57;19.10;;;31.60;30.80;;;;;;4946258;28;20456;-93
2021/03/02 11:43:18;;;;;;;19.27;17.40;;;30.80;31.20;;;;;;4980320;28;20452;-92
2021/03/02 11:51:48;;;;;;;19.80;17.83;;;31.80;28.90;;;;;;5067055;23;20511;-92
2021/03/02 11:54:15;;;;;;;18.63;17.00;;;30.60;29.90;;;;;;5012425;28;20451;-94
2021/03/02 11:56:41;;;;;;;17.60;16.00;;;32.00;28.80;;;;;;5043865;23;20496;-94
2021/03/02 11:59:11;;;;;;;18.07;16.43;;;31.90;28.40;;;;;;4980393;28;20456;-91
2021/03/02 12:01:38;;;;;;;17.70;16.10;;;30.50;28.80;;;;;;4987079;28;20500;-93
2021/03/02 12:04:04;;;;;;;17.97;16.37;;;30.60;28.90;;;;;;4990694;28;20464;-94
2021/03/02 12:06:34;;;;;;;17.80;16.20;;;31.80;28.60;;;;;;4989331;28;20436;-94
2021/03/02 12:09:01;;;;;;;19.87;18.00;;;32.30;27.70;;;;;;4999133;28;20467;-93
2021/03/02 12:11:38;;;;;;;17.40;15.90;;;32.60;27.50;;;;;;4961461;28;20434;-96
2021/03/02 12:14:27;;;;;;;17.80;16.23;;;31.00;27.90;;;;;;4978781;28;20508;-94
2021/03/02 12:16:57;;;;;;;19.47;17.97;;;30.70;28.60;;;;;;4986904;28;20532;-95
2021/03/02 12:19:36;;;;;;;18.37;16.77;;;31.40;28.60;;;;;;4978074;28;20482;-95
2021/03/02 12:22:03;;;;;;;17.43;15.73;;;32.10;27.70;;;;;;4986312;28;20481;-95
2021/03/02 12:24:29;;;;;;;17.83;16.20;;;32.50;27.40;;;;;;4978178;28;20540;-94
2021/03/02 17:10:59;;;;;;;;;;;;;;;;;;;;;
2021/03/02 17:17:38;;;;;;;24.17;13.93;;;14.80;53.20;;;;;;4975826;28;20451;-94
2021/03/02 17:20:12;;;;;;;27.97;16.00;;;14.70;53.70;;;;;;4997797;28;20457;-93
2021/03/02 17:25:28;;;;;;;24.43;14.00;;;14.40;54.80;;;;;;4998252;28;20576;-92
2021/03/02 17:28:08;;;;;;;24.77;15.03;;;14.30;55.30;;;;;;5004746;28;20471;-93
2021/03/02 17:30:59;;;;;;;21.13;15.50;;;14.20;55.60;;;;;;5017131;28;20453;-93
2021/03/02 17:33:36;;;;;;;23.57;15.60;;;14.10;55.90;;;;;;5237463;23;20488;-93
2021/03/02 17:36:04;;;;;;;23.87;15.03;;;14.00;56.10;;;;;;5110462;23;20502;-93
2021/03/02 17:38:48;;;;;;;21.60;16.80;;;13.90;56.70;;;;;;4995636;28;20462;-92
2021/03/02 17:44:09;;;;;;;33.73;22.90;;;13.70;57.30;;;;;;5065428;23;20486;-93
2021/03/02 17:46:39;;;;;;;26.00;19.43;;;13.60;57.80;;;;;;4992605;28;20990;-93
2021/03/02 17:57:53;;;;;;;26.53;16.73;;;13.10;59.70;;;;;;5145769;23;20500;-93
2021/03/02 18:00:27;;;;;;;28.10;17.07;;;13.00;59.70;;;;;;4982896;28;20463;-92
2021/03/02 18:03:29;;;;;;;29.60;18.33;;;12.90;60.20;;;;;;4971070;28;20485;-93
2021/03/02 18:09:08;;;;;;;31.50;17.93;;;12.90;60.20;;;;;;4942132;28;20445;-91
2021/03/02 18:11:44;;;;;;;29.77;16.27;;;12.80;60.80;;;;;;4966044;28;20479;-90
2021/03/02 18:14:22;;;;;;;23.97;17.30;;;12.70;61.10;;;;;;4974978;28;20525;-92
2021/03/02 18:16:59;;;;;;;24.00;15.07;;;12.60;62.10;;;;;;4976399;28;20489;-91
2021/03/02 18:19:43;;;;;;;25.90;17.80;;;12.40;62.80;;;;;;4978492;28;20455;-91
2021/03/02 18:22:10;;;;;;;26.00;19.10;;;12.40;63.90;;;;;;4959361;29;20504;-92
2021/03/02 18:24:57;;;;;;;27.57;19.60;;;12.30;63.80;;;;;;4963168;28;20561;-91
2021/03/02 18:27:23;;;;;;;33.40;20.20;;;12.30;64.20;;;;;;4958604;29;20445;-91
2021/03/02 18:30:21;;;;;;;28.80;18.43;;;12.20;64.70;;;;;;4953325;29;20480;-91
2021/03/02 18:32:52;;;;;;;24.57;18.80;;;12.20;65.10;;;;;;4957127;28;20520;-90
2021/03/02 18:35:33;;;;;;;28.33;18.50;;;12.00;65.70;;;;;;4963468;29;20822;-89
2021/03/02 18:37:59;;;;;;;28.87;17.30;;;12.00;66.30;;;;;;4973970;29;20552;-91
2021/03/02 18:48:06;;;;;;;26.87;16.17;;;11.60;69.80;;;;;;4869275;29;20445;-91
2021/03/02 18:50:36;;;;;;;29.23;18.17;;;11.60;69.40;;;;;;4958480;29;20461;-91
2021/03/02 18:53:31;;;;;;;25.50;17.67;;;11.50;70.20;;;;;;4955506;28;20480;-90
2021/03/02 18:55:58;;;;;;;20.83;16.63;;;11.30;70.20;;;;;;4970812;28;20539;-91
2021/03/02 18:58:24;;;;;;;32.10;18.17;;;11.20;70.90;;;;;;4973453;28;20477;-89
2021/03/02 19:00:51;;;;;;;29.50;18.27;;;11.00;71.40;;;;;;4964493;28;20568;-86
2021/03/02 19:03:18;;;;;;;24.60;17.60;;;11.00;72.00;;;;;;4961408;28;20995;-86
2021/03/02 19:05:44;;;;;;;30.63;19.57;;;10.80;72.90;;;;;;4966377;29;20440;-86
2021/03/02 19:08:10;;;;;;;30.40;22.10;;;10.90;74.00;;;;;;4961894;28;20440;-87
2021/03/02 19:10:37;;;;;;;31.57;22.27;;;10.80;74.30;;;;;;4971785;28;20469;-84
2021/03/02 19:13:04;;;;;;;33.70;20.13;;;10.70;74.90;;;;;;4968539;28;20465;-84
2021/03/02 19:15:31;;;;;;;30.13;18.67;;;10.80;75.00;;;;;;4964318;28;20475;-87
2021/03/02 19:17:57;;;;;;;30.60;21.43;;;10.80;75.00;;;;;;4967118;28;20866;-87
2021/03/02 19:20:24;;;;;;;26.80;21.07;;;10.80;75.20;;;;;;4970767;28;20468;-87
2021/03/02 19:22:59;;;;;;;31.80;21.60;;;10.70;75.40;;;;;;4973044;28;20503;-93
2021/03/02 19:25:26;;;;;;;28.40;21.30;;;10.60;75.70;;;;;;4981318;28;20467;-92
2021/03/02 19:27:58;;;;;;;32.27;20.87;;;10.50;75.80;;;;;;5125731;23;20486;-90
2021/03/02 19:30:25;;;;;;;33.63;22.83;;;10.40;75.90;;;;;;5018704;28;20462;-91
2021/03/02 19:32:52;;;;;;;35.40;20.13;;;10.40;77.00;;;;;;5016659;28;20483;-94
2021/03/02 19:35:30;;;;;;;36.93;20.47;;;10.40;77.00;;;;;;4997625;28;20469;-93
2021/03/02 19:38:01;;;;;;;34.03;20.57;;;10.40;76.90;;;;;;5006114;28;20451;-93
2021/03/02 19:40:28;;;;;;;32.07;21.60;;;10.30;76.90;;;;;;5004308;28;20569;-93
2021/03/02 19:42:54;;;;;;;30.17;22.20;;;10.30;77.20;;;;;;5010780;28;20471;-91
2021/03/02 19:45:21;;;;;;;29.30;21.00;;;10.20;77.30;;;;;;5011484;28;20435;-91
2021/03/02 19:47:47;;;;;;;28.63;20.57;;;10.20;78.00;;;;;;5009142;28;20491;-92
2021/03/02 19:50:14;;;;;;;33.03;22.47;;;10.20;78.00;;;;;;5010047;28;20441;-92
2021/03/02 19:52:41;;;;;;;31.23;21.40;;;10.20;78.30;;;;;;5005974;28;20499;-92
2021/03/02 19:55:09;;;;;;;32.03;22.73;;;10.10;78.70;;;;;;5008803;28;20446;-92
2021/03/02 19:57:36;;;;;;;29.33;21.40;;;10.10;78.60;;;;;;5009894;28;20467;-90
2021/03/02 20:00:04;;;;;;;30.47;22.83;;;10.10;78.60;;;;;;5009866;28;20502;-93
2021/03/02 20:02:31;;;;;;;27.70;20.93;;;9.90;80.20;;;;;;5007270;28;20508;-92
2021/03/02 20:04:57;;;;;;;29.90;19.90;;;9.90;80.80;;;;;;4997622;28;20499;-91
2021/03/02 20:07:24;;;;;;;35.83;21.93;;;9.80;80.80;;;;;;5007048;28;20520;-93
2021/03/02 20:09:51;;;;;;;40.30;28.77;;;9.70;81.50;;;;;;5008642;28;20459;-91
2021/03/02 20:15:54;;;;;;;27.73;21.27;;;9.60;80.70;;;;;;4999059;28;20455;-94
2021/03/02 20:18:27;;;;;;;35.00;21.63;;;9.50;80.70;;;;;;4996084;28;20420;-95
2021/03/02 20:21:02;;;;;;;32.73;22.43;;;9.40;81.50;;;;;;5011778;28;20431;-94
2021/03/02 20:28:45;;;;;;;35.63;22.10;;;9.30;83.60;;;;;;5034853;23;20509;-94
2021/03/02 20:36:26;;;;;;;34.37;20.57;;;9.20;83.00;;;;;;5045381;23;20482;-95
2021/03/02 20:44:18;;;;;;;38.57;21.63;;;9.10;83.00;;;;;;5022858;28;20476;-94
2021/03/02 20:46:50;;;;;;;30.13;19.87;;;9.00;84.90;;;;;;5031021;28;20441;-96
2021/03/02 21:21:19;;;;;;;32.37;20.33;;;8.40;88.50;;;;;;5131819;23;20474;-92
2021/03/02 21:24:06;;;;;;;34.50;21.70;;;8.30;88.20;;;;;;5006943;28;20470;-93
